createdAt,value
2022-10-11T00:01:04.850Z,46.53
2022-10-11T00:03:33.240Z,46.99
2022-10-11T00:06:04.194Z,47.05
2022-10-11T00:08:33.851Z,47.02
2022-10-11T00:11:05.056Z,46.88
2022-10-11T00:13:34.173Z,46.52
2022-10-11T00:16:02.826Z,46.61
2022-10-11T00:18:34.280Z,46.57
2022-10-11T00:21:07.908Z,46.67
2022-10-11T00:23:36.805Z,46.50
2022-10-11T00:26:08.277Z,46.59
2022-10-11T00:28:38.682Z,45.61
2022-10-11T00:31:16.764Z,46.10
2022-10-11T00:33:45.189Z,46.80
2022-10-11T00:36:18.493Z,46.73
2022-10-11T00:38:47.435Z,46.61
2022-10-11T00:41:17.163Z,46.39
2022-10-11T00:43:46.151Z,46.62
2022-10-11T00:46:20.511Z,46.64
2022-10-11T00:48:54.961Z,45.54
2022-10-11T00:51:35.727Z,46.09
2022-10-11T00:54:05.950Z,45.73
2022-10-11T00:56:41.203Z,45.39
2022-10-11T00:59:20.236Z,45.84
2022-10-11T01:01:48.757Z,45.89
2022-10-11T01:04:17.040Z,45.83
2022-10-11T01:06:46.484Z,45.86
2022-10-11T01:09:15.745Z,46.49
2022-10-11T01:11:45.949Z,46.78
2022-10-11T01:14:40.251Z,47.06
2022-10-11T01:17:17.332Z,47.90
2022-10-11T01:20:17.061Z,48.52
2022-10-11T01:23:09.691Z,48.96
2022-10-11T01:26:00.961Z,49.43
2022-10-11T01:29:04.560Z,50.10
2022-10-11T01:31:44.725Z,50.35
2022-10-11T01:34:22.640Z,50.60
2022-10-11T01:37:14.476Z,51.29
2022-10-11T01:39:49.891Z,51.77
2022-10-11T01:42:19.953Z,51.88
2022-10-11T01:44:51.096Z,52.20
2022-10-11T01:47:24.587Z,52.29
2022-10-11T01:50:01.840Z,53.08
2022-10-11T01:52:35.110Z,53.14
2022-10-11T01:55:21.686Z,53.46
2022-10-11T01:58:12.401Z,53.51
2022-10-11T02:00:59.085Z,54.07
2022-10-11T02:03:52.216Z,54.47
2022-10-11T02:07:01.835Z,54.68
2022-10-11T02:09:48.241Z,54.88
2022-10-11T02:12:42.150Z,55.66
2022-10-11T02:15:14.009Z,55.84
2022-10-11T02:17:50.454Z,56.19
2022-10-11T02:20:23.102Z,56.37
2022-10-11T02:22:57.325Z,56.88
2022-10-11T02:25:30.956Z,57.28
2022-10-11T02:28:03.055Z,57.48
2022-10-11T02:30:33.261Z,57.59
2022-10-11T02:33:06.511Z,57.45
2022-10-11T02:35:42.965Z,57.63
2022-10-11T02:38:28.049Z,57.64
2022-10-11T02:41:07.231Z,58.12
2022-10-11T02:43:42.595Z,57.97
2022-10-11T02:46:12.507Z,58.05
2022-10-11T02:48:41.041Z,58.06
2022-10-11T02:51:14.857Z,58.16
2022-10-11T02:53:43.275Z,58.19
2022-10-11T02:56:11.909Z,58.22
2022-10-11T02:58:40.233Z,58.29
2022-10-11T03:01:08.615Z,58.18
2022-10-11T03:03:37.035Z,58.70
2022-10-11T03:06:06.043Z,58.76
2022-10-11T03:08:34.798Z,58.84
2022-10-11T03:11:03.119Z,59.00
2022-10-11T03:13:31.510Z,59.53
2022-10-11T03:16:03.796Z,59.46
2022-10-11T03:18:32.784Z,59.73
2022-10-11T03:21:01.168Z,59.81
2022-10-11T03:23:29.524Z,60.02
2022-10-11T03:25:57.842Z,60.09
2022-10-11T03:28:26.177Z,60.22
2022-10-11T03:30:57.350Z,60.27
2022-10-11T03:33:25.680Z,60.37
2022-10-11T03:35:54.129Z,60.57
2022-10-11T03:38:23.606Z,60.88
2022-10-11T03:40:51.979Z,61.04
2022-10-11T03:43:20.265Z,61.22
2022-10-11T03:45:48.565Z,61.43
2022-10-11T03:48:16.921Z,61.31
2022-10-11T03:50:45.200Z,61.25
2022-10-11T03:53:13.660Z,61.61
2022-10-11T03:55:43.046Z,61.75
2022-10-11T03:58:11.595Z,61.71
2022-10-11T04:00:41.244Z,61.85
2022-10-11T04:03:09.486Z,62.17
2022-10-11T04:05:38.205Z,62.08
2022-10-11T04:08:11.184Z,61.88
2022-10-11T04:10:41.169Z,62.16
2022-10-11T04:13:12.106Z,62.41
2022-10-11T04:15:42.088Z,62.25
2022-10-11T04:18:11.154Z,62.29
2022-10-11T04:20:40.075Z,62.42
2022-10-11T04:23:08.400Z,62.75
2022-10-11T04:25:38.940Z,62.53
2022-10-11T04:28:09.057Z,62.72
2022-10-11T04:30:37.616Z,62.73
2022-10-11T04:33:06.398Z,63.00
2022-10-11T04:35:35.096Z,62.97
2022-10-11T04:38:04.170Z,63.21
2022-10-11T04:40:32.671Z,63.34
2022-10-11T04:43:01.329Z,63.80
2022-10-11T04:45:29.658Z,63.77
2022-10-11T04:47:57.922Z,64.02
2022-10-11T04:50:26.273Z,64.05
2022-10-11T04:52:54.631Z,63.88
2022-10-11T04:55:23.046Z,64.12
2022-10-11T04:57:51.437Z,64.08
2022-10-11T05:00:19.860Z,64.07
2022-10-11T05:02:48.079Z,64.14
2022-10-11T05:05:18.479Z,64.29
2022-10-11T05:07:46.810Z,64.41
2022-10-11T05:10:15.558Z,64.42
2022-10-11T05:12:43.871Z,64.49
2022-10-11T05:15:12.215Z,64.65
2022-10-11T05:17:40.555Z,64.71
2022-10-11T05:20:09.445Z,64.61
2022-10-11T05:22:37.790Z,64.77
2022-10-11T05:25:06.594Z,64.84
2022-10-11T05:27:34.823Z,65.09
2022-10-11T05:30:03.270Z,64.98
2022-10-11T05:32:31.726Z,65.32
2022-10-11T05:35:00.021Z,65.04
2022-10-11T05:37:28.310Z,65.38
2022-10-11T05:39:56.710Z,65.39
2022-10-11T05:42:25.032Z,65.44
2022-10-11T05:44:53.281Z,65.45
2022-10-11T05:47:21.511Z,65.55
2022-10-11T05:49:49.796Z,65.51
2022-10-11T05:52:22.480Z,65.71
2022-10-11T05:54:51.772Z,65.72
2022-10-11T05:57:20.080Z,65.95
2022-10-11T05:59:48.300Z,66.03
2022-10-11T06:02:16.556Z,66.11
2022-10-11T06:04:44.779Z,66.26
2022-10-11T06:07:13.495Z,66.20
2022-10-11T06:09:41.735Z,66.14
2022-10-11T06:12:12.447Z,66.29
2022-10-11T06:14:40.718Z,66.49
2022-10-11T06:17:09.257Z,66.40
2022-10-11T06:19:37.962Z,66.62
2022-10-11T06:22:06.244Z,66.92
2022-10-11T06:24:34.481Z,66.71
2022-10-11T06:27:02.750Z,66.92
2022-10-11T06:29:31.110Z,66.96
2022-10-11T06:31:59.509Z,66.98
2022-10-11T06:34:28.050Z,67.14
2022-10-11T06:36:56.319Z,67.18
2022-10-11T06:39:24.691Z,67.32
2022-10-11T06:41:53.169Z,67.41
2022-10-11T06:44:21.485Z,67.49
2022-10-11T06:46:49.855Z,67.61
2022-10-11T06:49:23.075Z,67.50
2022-10-11T06:51:52.547Z,67.72
2022-10-11T06:54:21.048Z,67.95
2022-10-11T06:56:49.524Z,68.06
2022-10-11T06:59:17.990Z,67.93
2022-10-11T07:01:46.325Z,68.01
2022-10-11T07:04:14.648Z,68.01
2022-10-11T07:06:43.702Z,68.22
2022-10-11T07:09:12.079Z,68.30
2022-10-11T07:11:40.465Z,68.32
2022-10-11T07:14:09.115Z,68.29
2022-10-11T07:16:38.134Z,68.39
2022-10-11T07:19:07.957Z,68.56
2022-10-11T07:21:36.789Z,68.40
2022-10-11T07:24:05.456Z,68.29
2022-10-11T07:26:38.520Z,68.65
2022-10-11T07:29:09.802Z,68.70
2022-10-11T07:31:40.882Z,68.58
2022-10-11T07:34:09.517Z,68.86
2022-10-11T07:36:38.333Z,68.85
2022-10-11T07:39:07.920Z,68.88
2022-10-11T07:41:39.735Z,68.93
2022-10-11T07:44:11.862Z,68.81
2022-10-11T07:46:40.217Z,68.81
2022-10-11T07:49:08.560Z,69.01
2022-10-11T07:51:37.178Z,68.89
2022-10-11T07:54:07.440Z,68.95
2022-10-11T07:56:36.231Z,69.24
2022-10-11T07:59:05.041Z,69.30
2022-10-11T08:01:34.452Z,69.25
2022-10-11T08:04:02.910Z,69.29
2022-10-11T08:06:33.520Z,69.34
2022-10-11T08:09:02.799Z,69.27
2022-10-11T08:11:36.830Z,69.40
2022-10-11T08:14:09.837Z,69.50
2022-10-11T08:16:42.000Z,69.47
2022-10-11T08:19:12.353Z,69.50
2022-10-11T08:21:40.721Z,69.70
2022-10-11T08:24:09.674Z,69.76
2022-10-11T08:26:38.001Z,69.84
2022-10-11T08:29:07.121Z,69.90
2022-10-11T08:31:36.247Z,70.02
2022-10-11T08:34:04.880Z,70.12
2022-10-11T08:36:33.837Z,70.15
2022-10-11T08:39:02.962Z,70.35
2022-10-11T08:42:08.385Z,70.57
2022-10-11T08:45:10.705Z,70.62
2022-10-11T08:47:46.479Z,70.48
2022-10-11T08:50:23.520Z,70.46
2022-10-11T08:53:09.039Z,70.36
2022-10-11T08:55:51.924Z,70.74
2022-10-11T08:58:53.151Z,70.67
2022-10-11T09:01:27.288Z,70.56
2022-10-11T09:03:56.849Z,70.72
2022-10-11T09:06:48.563Z,70.68
2022-10-11T09:09:44.097Z,70.54
2022-10-11T09:12:33.477Z,70.59
2022-10-11T09:15:39.748Z,70.50
2022-10-11T09:18:32.165Z,70.55
2022-10-11T09:21:21.990Z,70.52
2022-10-11T09:24:22.610Z,70.46
2022-10-11T09:26:50.800Z,70.71
2022-10-11T09:29:37.290Z,71.02
2022-10-11T09:32:17.010Z,70.91
2022-10-11T09:34:45.517Z,71.04
2022-10-11T09:37:55.087Z,70.97
2022-10-11T09:40:45.688Z,70.96
2022-10-11T09:43:14.648Z,70.87
2022-10-11T09:45:49.555Z,71.07
2022-10-11T09:48:27.599Z,70.97
2022-10-11T09:51:11.331Z,71.04
2022-10-11T09:54:03.715Z,71.12
2022-10-11T09:56:34.804Z,71.20
2022-10-11T09:59:21.355Z,71.18
2022-10-11T10:01:51.980Z,71.13
2022-10-11T10:04:20.879Z,71.41
2022-10-11T10:06:49.206Z,71.46
2022-10-11T10:09:31.119Z,71.50
2022-10-11T10:11:59.757Z,71.58
2022-10-11T10:14:32.158Z,71.50
2022-10-11T10:17:06.834Z,71.37
2022-10-11T10:19:55.454Z,71.39
2022-10-11T10:22:31.279Z,71.43
2022-10-11T10:25:03.165Z,71.45
2022-10-11T10:27:33.360Z,71.71
2022-10-11T10:30:04.030Z,71.55
2022-10-11T10:33:01.674Z,71.49
2022-10-11T10:35:31.821Z,71.46
2022-10-11T10:38:08.395Z,71.48
2022-10-11T10:40:51.284Z,71.50
2022-10-11T10:43:25.987Z,71.44
2022-10-11T10:46:19.750Z,71.58
2022-10-11T10:52:20.992Z,71.67
2022-10-11T10:55:24.362Z,71.68
2022-10-11T10:58:18.811Z,71.68
2022-10-11T11:00:50.110Z,71.79
2022-10-11T11:03:28.451Z,71.92
2022-10-11T11:06:09.010Z,71.77
2022-10-11T11:09:08.080Z,71.89
2022-10-11T11:11:54.165Z,71.80
2022-10-11T11:14:47.760Z,71.87
2022-10-11T11:17:44.239Z,71.78
2022-10-11T11:20:21.048Z,71.84
2022-10-11T11:23:24.397Z,71.99
2022-10-11T11:26:20.559Z,72.01
2022-10-11T11:29:01.359Z,72.08
2022-10-11T11:31:48.239Z,72.07
2022-10-11T11:34:22.961Z,72.12
2022-10-11T11:37:03.443Z,72.27
2022-10-11T11:39:34.000Z,72.52
2022-10-11T11:42:21.999Z,72.25
2022-10-11T11:44:53.370Z,72.35
2022-10-11T11:47:47.711Z,72.31
2022-10-11T11:50:24.199Z,72.30
2022-10-11T11:53:08.880Z,72.22
2022-10-11T11:55:56.988Z,72.27
2022-10-11T11:58:44.400Z,72.35
2022-10-11T12:01:59.141Z,72.51
2022-10-11T12:04:33.199Z,72.36
2022-10-11T12:07:26.369Z,72.37
2022-10-11T12:10:16.078Z,72.29
2022-10-11T12:12:44.566Z,72.34
2022-10-11T12:15:26.162Z,72.39
2022-10-11T12:17:57.193Z,72.44
2022-10-11T12:20:33.679Z,72.66
2022-10-11T12:23:20.240Z,72.66
2022-10-11T12:26:26.760Z,72.70
2022-10-11T12:29:20.741Z,72.68
2022-10-11T12:31:52.115Z,72.57
2022-10-11T12:34:42.641Z,72.47
2022-10-11T12:37:23.440Z,72.57
2022-10-11T12:39:59.767Z,72.59
2022-10-11T12:42:38.314Z,72.48
2022-10-11T12:45:15.602Z,72.47
2022-10-11T12:47:52.560Z,72.50
2022-10-11T12:50:41.443Z,72.58
2022-10-11T12:53:24.299Z,72.48
2022-10-11T12:56:08.943Z,72.41
2022-10-11T12:58:42.486Z,72.37
2022-10-11T13:01:20.656Z,72.57
2022-10-11T13:04:13.837Z,72.50
2022-10-11T13:06:55.816Z,72.57
2022-10-11T13:09:27.124Z,72.54
2022-10-11T13:12:02.629Z,72.54
2022-10-11T13:14:36.333Z,72.65
2022-10-11T13:17:05.014Z,72.56
2022-10-11T13:19:36.215Z,72.56
2022-10-11T13:22:16.400Z,72.45
2022-10-11T13:24:51.919Z,72.51
2022-10-11T13:27:24.243Z,72.40
2022-10-11T13:29:58.031Z,72.47
2022-10-11T13:32:28.885Z,72.40
2022-10-11T13:35:01.845Z,72.64
2022-10-11T13:37:32.276Z,72.49
2022-10-11T13:40:00.663Z,72.60
2022-10-11T13:42:33.796Z,72.64
2022-10-11T13:45:02.802Z,72.68
2022-10-11T13:47:33.153Z,72.47
2022-10-11T13:50:16.556Z,72.56
2022-10-11T13:53:10.776Z,72.66
2022-10-11T13:55:58.411Z,72.47
2022-10-11T13:58:33.490Z,72.52
2022-10-11T14:01:18.346Z,72.46
2022-10-11T14:03:50.960Z,72.40
2022-10-11T14:06:19.438Z,72.40
2022-10-11T14:08:52.720Z,72.60
2022-10-11T14:11:38.482Z,72.58
2022-10-11T14:14:31.279Z,72.49
2022-10-11T14:17:21.030Z,72.40
2022-10-11T14:20:11.615Z,72.48
2022-10-11T14:22:40.403Z,72.52
2022-10-11T14:25:08.848Z,72.65
2022-10-11T14:27:38.646Z,72.32
2022-10-11T14:30:31.847Z,72.41
2022-10-11T14:33:02.590Z,72.60
2022-10-11T14:35:33.488Z,72.56
2022-10-11T14:38:02.001Z,72.46
2022-10-11T14:40:32.569Z,72.63
2022-10-11T14:43:00.935Z,72.65
2022-10-11T14:45:29.204Z,72.26
2022-10-11T14:47:57.641Z,72.65
2022-10-11T14:50:43.568Z,72.45
2022-10-11T14:53:13.532Z,72.59
2022-10-11T14:55:42.681Z,72.58
2022-10-11T14:58:14.967Z,72.53
2022-10-11T15:00:44.530Z,72.42
2022-10-11T15:03:13.204Z,72.32
2022-10-11T15:05:41.678Z,72.32
2022-10-11T15:08:10.150Z,72.44
2022-10-11T15:10:41.528Z,72.40
2022-10-11T15:13:13.040Z,72.23
2022-10-11T15:15:42.521Z,72.20
2022-10-11T15:18:17.655Z,72.28
2022-10-11T15:20:47.607Z,72.23
2022-10-11T15:23:16.108Z,72.03
2022-10-11T15:25:44.511Z,71.94
2022-10-11T15:28:38.539Z,71.76
2022-10-11T15:31:06.975Z,71.87
2022-10-11T15:33:35.283Z,71.92
2022-10-11T15:36:03.921Z,71.62
2022-10-11T15:38:32.715Z,71.56
2022-10-11T15:41:01.675Z,71.71
2022-10-11T15:43:29.961Z,71.54
2022-10-11T15:45:59.296Z,71.41
2022-10-11T15:48:28.398Z,71.24
2022-10-11T15:50:57.570Z,71.19
2022-10-11T15:53:32.080Z,71.10
2022-10-11T15:56:01.938Z,70.99
2022-10-11T15:58:36.545Z,70.87
2022-10-11T16:01:10.676Z,71.08
2022-10-11T16:03:39.160Z,71.05
2022-10-11T16:06:08.491Z,70.75
2022-10-11T16:08:37.947Z,70.55
2022-10-11T16:11:08.005Z,70.48
2022-10-11T16:13:36.874Z,70.47
2022-10-11T16:16:10.246Z,70.60
2022-10-11T16:18:39.308Z,70.54
2022-10-11T16:21:16.385Z,70.26
2022-10-11T16:23:44.671Z,70.08
2022-10-11T16:26:15.065Z,70.00
2022-10-11T16:28:43.736Z,69.68
2022-10-11T16:31:17.641Z,69.54
2022-10-11T16:33:49.089Z,69.76
2022-10-11T16:36:41.414Z,69.66
2022-10-11T16:39:15.707Z,69.47
2022-10-11T16:41:45.097Z,69.09
2022-10-11T16:44:18.475Z,69.32
2022-10-11T16:46:50.797Z,69.53
2022-10-11T16:49:23.389Z,69.24
2022-10-11T16:51:56.507Z,69.07
2022-10-11T16:54:24.851Z,68.88
2022-10-11T16:56:56.235Z,68.74
2022-10-11T16:59:27.336Z,68.93
2022-10-11T17:01:56.190Z,69.08
2022-10-11T17:04:24.935Z,69.13
2022-10-11T17:06:55.279Z,68.95
2022-10-11T17:09:23.712Z,69.06
2022-10-11T17:11:56.650Z,69.13
2022-10-11T17:14:24.880Z,68.66
2022-10-11T17:16:56.236Z,68.88
2022-10-11T17:19:24.560Z,68.65
2022-10-11T17:21:53.040Z,68.80
2022-10-11T17:24:21.360Z,68.71
2022-10-11T17:26:49.831Z,68.53
2022-10-11T17:29:18.290Z,68.09
2022-10-11T17:31:49.173Z,68.34
2022-10-11T17:34:18.320Z,68.24
2022-10-11T17:36:46.555Z,68.12
2022-10-11T17:39:18.314Z,67.85
2022-10-11T17:41:47.445Z,67.49
2022-10-11T17:44:18.747Z,67.47
2022-10-11T17:46:50.100Z,67.45
2022-10-11T17:49:18.769Z,67.28
2022-10-11T17:51:47.037Z,67.02
2022-10-11T17:54:15.371Z,66.91
2022-10-11T17:56:43.789Z,66.80
2022-10-11T17:59:17.992Z,66.39
2022-10-11T18:01:46.322Z,66.55
2022-10-11T18:04:17.331Z,66.66
2022-10-11T18:06:47.483Z,66.54
2022-10-11T18:09:18.358Z,66.29
2022-10-11T18:11:47.784Z,66.10
2022-10-11T18:14:16.560Z,66.14
2022-10-11T18:16:46.670Z,65.94
2022-10-11T18:19:15.280Z,65.74
2022-10-11T18:21:43.650Z,65.54
2022-10-11T18:24:16.849Z,65.29
2022-10-11T18:26:46.451Z,65.13
2022-10-11T18:29:15.054Z,65.18
2022-10-11T18:31:43.371Z,64.86
2022-10-11T18:34:13.902Z,64.55
2022-10-11T18:36:44.715Z,64.56
2022-10-11T18:39:15.596Z,64.20
2022-10-11T18:41:45.301Z,64.22
2022-10-11T18:44:15.898Z,64.43
2022-10-11T18:46:45.140Z,64.08
2022-10-11T18:49:14.442Z,63.45
2022-10-11T18:51:43.444Z,63.44
2022-10-11T18:54:16.706Z,63.09
2022-10-11T18:56:48.445Z,63.11
2022-10-11T18:59:16.841Z,63.05
2022-10-11T19:01:46.085Z,62.65
2022-10-11T19:04:18.750Z,62.43
2022-10-11T19:06:49.960Z,62.26
2022-10-11T19:09:23.599Z,61.59
2022-10-11T19:11:54.162Z,61.72
2022-10-11T19:14:26.686Z,61.43
2022-10-11T19:16:55.965Z,61.59
2022-10-11T19:19:27.485Z,60.98
2022-10-11T19:21:58.214Z,61.07
2022-10-11T19:24:29.676Z,60.66
2022-10-11T19:27:02.604Z,60.55
2022-10-11T19:29:32.688Z,60.42
2022-10-11T19:32:04.529Z,60.40
2022-10-11T19:34:33.685Z,60.10
2022-10-11T19:37:02.165Z,59.97
2022-10-11T19:39:30.645Z,59.51
2022-10-11T19:41:58.965Z,59.31
2022-10-11T19:44:27.284Z,59.34
2022-10-11T19:46:55.598Z,59.23
2022-10-11T19:49:25.950Z,58.79
2022-10-11T19:51:56.238Z,58.50
2022-10-11T19:54:24.679Z,58.60
2022-10-11T19:56:53.440Z,58.03
2022-10-11T19:59:22.008Z,58.05
2022-10-11T20:01:53.132Z,57.82
2022-10-11T20:07:11.547Z,57.21
2022-10-11T20:09:39.920Z,57.54
2022-10-11T20:12:08.534Z,56.86
2022-10-11T20:14:37.004Z,56.68
2022-10-11T20:17:05.365Z,56.43
2022-10-11T20:19:33.800Z,56.80
2022-10-11T20:22:02.994Z,56.35
2022-10-11T20:24:34.078Z,56.26
2022-10-11T20:27:05.060Z,55.91
2022-10-11T20:29:33.316Z,55.85
2022-10-11T20:32:01.735Z,55.85
2022-10-11T20:34:30.160Z,54.88
2022-10-11T20:36:58.747Z,54.98
2022-10-11T20:39:27.149Z,54.55
2022-10-11T20:41:55.782Z,54.64
2022-10-11T20:44:24.105Z,54.63
2022-10-11T20:46:52.390Z,54.73
2022-10-11T20:49:20.837Z,54.41
2022-10-11T20:51:49.615Z,54.00
2022-10-11T20:54:18.325Z,53.77
2022-10-11T20:56:46.566Z,53.84
2022-10-11T20:59:14.910Z,53.79
2022-10-11T21:01:43.438Z,52.60
2022-10-11T21:04:18.985Z,52.81
2022-10-11T21:06:48.887Z,52.68
2022-10-11T21:09:17.666Z,52.59
2022-10-11T21:11:46.014Z,52.48
2022-10-11T21:14:14.540Z,52.25
2022-10-11T21:16:42.943Z,52.01
2022-10-11T21:19:15.105Z,51.64
2022-10-11T21:21:44.616Z,50.94
2022-10-11T21:24:14.725Z,50.88
2022-10-11T21:26:43.005Z,50.15
2022-10-11T21:29:11.410Z,49.97
2022-10-11T21:31:41.686Z,50.22
2022-10-11T21:34:10.085Z,49.81
2022-10-11T21:36:38.414Z,49.42
2022-10-11T21:39:06.725Z,49.01
2022-10-11T21:41:35.110Z,48.76
2022-10-11T21:44:03.555Z,49.01
2022-10-11T21:47:01.148Z,48.58
2022-10-11T21:49:21.694Z,47.40
2022-10-11T21:51:50.609Z,47.48
2022-10-11T21:54:19.430Z,47.48
2022-10-11T21:56:48.399Z,47.65
2022-10-11T21:59:16.875Z,46.94
2022-10-11T22:01:45.699Z,47.51
2022-10-11T22:04:14.484Z,46.84
2022-10-11T22:06:42.807Z,46.58
2022-10-11T22:09:11.269Z,46.39
2022-10-11T22:11:40.079Z,46.61
2022-10-11T22:14:08.510Z,46.72
2022-10-11T22:16:36.918Z,45.83
2022-10-11T22:19:05.355Z,46.31
2022-10-11T22:21:33.795Z,45.74
2022-10-11T22:24:02.160Z,45.45
2022-10-11T22:26:32.393Z,46.20
2022-10-11T22:29:01.364Z,45.73
2022-10-11T22:31:30.807Z,45.53
2022-10-11T22:34:01.233Z,45.88
2022-10-11T22:36:31.440Z,45.01
2022-10-11T22:38:59.905Z,45.87
2022-10-11T22:41:28.550Z,45.53
2022-10-11T22:43:56.891Z,45.51
2022-10-11T22:46:25.199Z,45.91
2022-10-11T22:48:53.529Z,45.86
2022-10-11T22:51:24.405Z,45.89
2022-10-11T22:53:52.728Z,46.06
2022-10-11T22:56:21.048Z,46.65
2022-10-11T22:58:49.365Z,45.92
2022-10-11T23:01:17.845Z,46.70
2022-10-11T23:03:50.195Z,47.31
2022-10-11T23:06:18.986Z,47.18
2022-10-11T23:08:47.279Z,47.34
2022-10-11T23:11:15.597Z,47.94
2022-10-11T23:13:43.871Z,48.03
2022-10-11T23:16:13.819Z,48.03
2022-10-11T23:18:43.119Z,48.24
2022-10-11T23:21:12.139Z,48.20
2022-10-11T23:23:40.672Z,48.40
2022-10-11T23:26:13.179Z,48.79
2022-10-11T23:28:43.172Z,49.07
2022-10-11T23:31:14.070Z,49.10
2022-10-11T23:33:42.432Z,48.92
2022-10-11T23:36:22.955Z,49.19
2022-10-11T23:38:56.397Z,49.36
2022-10-11T23:41:27.909Z,49.83
2022-10-11T23:43:56.399Z,49.61
2022-10-11T23:46:24.991Z,50.21
2022-10-11T23:48:53.253Z,50.12
2022-10-11T23:51:21.645Z,50.59
2022-10-11T23:53:50.030Z,50.63
2022-10-11T23:56:18.343Z,51.10
2022-10-11T23:58:46.919Z,50.81
